Terminal Aerodrome Forecast
Issued by NWS Boston, MA

Home | Current Version | Previous Version | Text Only | Print | Product List | Glossary On
Versions: 1 2 3 4 5 6 7 8 9 10 11 12 13 14 15 16 17 18 19 20 21 22 23 24 25 26 27 28 29 30 31 32 33 34 35 36 37 38 39 40 41
000
FTUS41 KBOX 272335
TAFORH
TAF
KORH 272335Z 2800/2824 32004KT P6SM OVC035
     FM280300 33004KT P6SM OVC025
     FM280500 34005KT 3SM BR OVC010
     FM280600 34006KT 2SM -SHSN BR OVC010
     FM280700 34006KT 1SM -SHSN BR OVC010
     FM281200 35008KT 1/2SM SHSN FZFG OVC015
     FM281300 35008KT 3/4SM -SHSN BR OVC015
     FM282000 34008KT P6SM OVC015=

USA.gov is the U.S. government's official web portal to all federal, state and local government web resources and services.